Songa Pride — V7LM8 — position and weather

sailwx.info

Track history (hours):
 
Tides and Currents Weather Stations Pressure Air Temp Water Temp Dewpoint Dewpoint Depression Visibility Wind Speed Wind Dir Waves Ship Positions

Songa Pride

Last reported at 2017-Dec-11 04:13 UTC. Time now 2017-Dec-12 19:46 UTC.
Position N 38°22' W 125°01'.

Length 184 m; draft 7.8 m.

Type: Ship. MMSI: 538006302.

Date/timePositionNaut miles runAvg speedWind from/ knotsBaromVisibWave heightAir tempDewpointWater temp
2017-Dec-11 04:13N 38°22' W 125°01'413.7
2017-Dec-11 03:56N 38°19' W 124°59'613.9
2017-Dec-11 03:31N 38°14' W 124°56'714.4
2017-Dec-11 03:00N 38°07' W 124°52'714.7
2017-Dec-11 02:31N 38°01' W 124°47'714.7
2017-Dec-11 02:01N 37°54' W 124°43'714.8
2017-Dec-11 01:31N 37°47' W 124°39'714.7
2017-Dec-11 01:01N 37°41' W 124°35'714.6
2017-Dec-11 00:31N 37°34' W 124°32'714.1
2017-Dec-11 00:01N 37°28' W 124°28'714.1
2017-Dec-10 23:31N 37°21' W 124°24'713.9
2017-Dec-10 23:01N 37°15' W 124°20'714.0
2017-Dec-10 22:31N 37°09' W 124°17'714.3
2017-Dec-10 22:01N 37°02' W 124°13'714.1
2017-Dec-10 21:31N 36°56' W 124°09'714.0
2017-Dec-10 21:01N 36°49' W 124°05'714.2
2017-Dec-10 20:31N 36°43' W 124°01'714.1
2017-Dec-10 20:01N 36°37' W 123°58'714.2
2017-Dec-10 19:31N 36°30' W 123°53'714.3
2017-Dec-10 19:01N 36°24' W 123°50'714.2
2017-Dec-10 18:31N 36°18' W 123°46'714.2
2017-Dec-10 18:01N 36°11' W 123°42'713.8
2017-Dec-10 17:31N 36°05' W 123°39'713.8
2017-Dec-10 17:01N 35°59' W 123°35'714.1
2017-Dec-10 16:31N 35°52' W 123°31'714.7
2017-Dec-10 16:01N 35°46' W 123°27'713.7
2017-Dec-10 15:31N 35°40' W 123°24'713.6
2017-Dec-10 15:00N 35°33' W 123°20'713.6
2017-Dec-10 14:30N 35°27' W 123°17'713.5
2017-Dec-10 14:00N 35°21' W 123°13'713.3
2017-Dec-10 13:30N 35°15' W 123°10'713.3
2017-Dec-10 13:00N 35°09' W 123°06'1013.4
2017-Dec-10 12:16N 35°00' W 123°01'512.5
2017-Dec-10 11:52N 34°57' W 122°56'1113.0
2017-Dec-10 11:03N 34°54' W 122°44'413.0
2017-Dec-10 10:45N 34°52' W 122°39'313.3
2017-Dec-10 10:30N 34°51' W 122°36'713.6
2017-Dec-10 09:58N 34°49' W 122°27'713.8
2017-Dec-10 09:30N 34°48' W 122°19'713.6
2017-Dec-10 09:01N 34°46' W 122°12'713.6
2017-Dec-10 08:31N 34°44' W 122°04'713.7
2017-Dec-10 08:01N 34°43' W 121°55'713.8
2017-Dec-10 07:30N 34°40' W 121°47'713.9
2017-Dec-10 07:00N 34°38' W 121°39'713.6
2017-Dec-10 06:31N 34°36' W 121°32'713.7
2017-Dec-10 06:00N 34°34' W 121°24'713.8
2017-Dec-10 05:31N 34°32' W 121°16'713.6
2017-Dec-10 05:00N 34°30' W 121°08'713.8
2017-Dec-10 04:30N 34°28' W 120°60'713.4
2017-Dec-10 04:00N 34°26' W 120°52'713.6
2017-Dec-10 03:30N 34°25' W 120°44'713.7
2017-Dec-10 03:00N 34°23' W 120°36'713.5
2017-Dec-10 02:29N 34°21' W 120°28'713.6
2017-Dec-10 02:00N 34°19' W 120°20'713.4
2017-Dec-10 01:29N 34°17' W 120°12'713.5
2017-Dec-10 00:59N 34°15' W 120°04'714.1
2017-Dec-10 00:30N 34°13' W 119°56'714.0
2017-Dec-10 00:00N 34°12' W 119°48'814.5
2017-Dec-09 23:29N 34°10' W 119°39'714.7
2017-Dec-09 22:59N 34°08' W 119°31'714.9
2017-Dec-09 22:30N 34°06' W 119°22'815.0
2017-Dec-09 22:00N 34°03' W 119°14'714.5
2017-Dec-09 21:30N 33°60' W 119°06'714.0
2017-Dec-09 20:59N 33°56' W 118°59'611.6
2017-Dec-09 20:29N 33°53' W 118°52'611.9
2017-Dec-09 20:01N 33°51' W 118°47'611.7
2017-Dec-09 19:31N 33°48' W 118°40'611.8
2017-Dec-09 19:00N 33°45' W 118°34'611.6
2017-Dec-09 18:31N 33°42' W 118°28'611.2
2017-Dec-09 18:01N 33°39' W 118°23'911.1
2017-Dec-09 17:14N 33°38' W 118°12'5 1.3
2017-Dec-09 13:17N 33°43' W 118°14'0 0.1
2017-Dec-09 12:23N 33°43' W 118°14'0 0.1
2017-Dec-09 11:59N 33°43' W 118°14'0 0.0
2017-Dec-09 11:29N 33°43' W 118°14'0 0.2
2017-Dec-09 10:50N 33°43' W 118°14'0 0.0
2017-Dec-09 10:29N 33°43' W 118°14'0 0.2
2017-Dec-09 09:59N 33°43' W 118°14'0 0.0
2017-Dec-09 09:29N 33°43' W 118°14'0 0.1
2017-Dec-09 08:59N 33°43' W 118°14'0 0.1
2017-Dec-09 08:29N 33°43' W 118°14'0 0.0
2017-Dec-09 07:53N 33°43' W 118°14'0 0.1
2017-Dec-09 06:41N 33°43' W 118°14'0 0.1
2017-Dec-09 06:23N 33°43' W 118°14'0 0.1
2017-Dec-09 05:53N 33°43' W 118°14'1 0.2
2017-Dec-09 01:09N 33°43' W 118°15'1 8.2
2017-Dec-09 00:59N 33°43' W 118°16'3 0.1
2017-Dec-07 13:26N 33°41' W 118°14'4 5.4
2017-Dec-07 12:46N 33°37' W 118°15'1 3.8
2017-Dec-07 12:23N 33°36' W 118°16'7 7.2
2017-Dec-07 11:24N 33°38' W 118°24'3 8.2
2017-Dec-07 11:00N 33°40' W 118°28'4 8.3
2017-Dec-07 10:30N 33°42' W 118°32'4 8.8
2017-Dec-07 10:00N 33°44' W 118°37'4 8.4
2017-Dec-07 09:30N 33°46' W 118°41'5 9.6
2017-Dec-07 09:00N 33°48' W 118°46'510.9
2017-Dec-07 08:30N 33°51' W 118°52'510.6
2017-Dec-07 08:00N 33°53' W 118°58'611.2
2017-Dec-07 07:30N 33°56' W 119°03'611.6
2017-Dec-07 07:00N 33°59' W 119°09'612.1
2017-Dec-07 06:29N 34°02' W 119°16'612.5
2017-Dec-07 05:58N 34°04' W 119°23'612.5
2017-Dec-07 05:30N 34°06' W 119°30'713.1
2017-Dec-07 05:00N 34°08' W 119°38'714.0
2017-Dec-07 04:30N 34°09' W 119°46'714.2
2017-Dec-07 03:59N 34°11' W 119°54'714.5
2017-Dec-07 03:30N 34°13' W 120°03'713.9
2017-Dec-07 03:00N 34°15' W 120°11'713.9
2017-Dec-07 02:30N 34°17' W 120°19'714.3
2017-Dec-07 02:00N 34°19' W 120°27'713.6
2017-Dec-07 01:30N 34°20' W 120°35'714.0
2017-Dec-07 01:00N 34°22' W 120°43'714.1
2017-Dec-07 00:31N 34°23' W 120°52'714.4
2017-Dec-07 00:00N 34°26' W 120°60'714.3
2017-Dec-06 23:30N 34°28' W 121°08'714.0
2017-Dec-06 23:00N 34°31' W 121°16'713.8
2017-Dec-06 22:30N 34°33' W 121°24'714.0
2017-Dec-06 22:00N 34°35' W 121°32'714.4
2017-Dec-06 21:30N 34°37' W 121°40'714.1
2017-Dec-06 21:00N 34°39' W 121°48'  
2017-Dec-03 20:06N 48°22' W 125°11'212.4
2017-Dec-03 19:56N 48°24' W 125°09'512.2
2017-Dec-03 19:30N 48°28' W 125°04'611.5
2017-Dec-03 19:00N 48°31' W 124°56'612.5
2017-Dec-03 18:30N 48°31' W 124°47'612.8
2017-Dec-03 18:00N 48°29' W 124°38'713.4
2017-Dec-03 17:30N 48°26' W 124°28'713.4
2017-Dec-03 17:00N 48°24' W 124°19'713.7
2017-Dec-03 16:30N 48°21' W 124°10'714.1
2017-Dec-03 16:00N 48°18' W 124°00'714.4
2017-Dec-03 15:30N 48°17' W 123°49'714.3
2017-Dec-03 15:00N 48°16' W 123°39'613.2
2017-Dec-03 14:30N 48°17' W 123°29'714.1
2017-Dec-03 14:00N 48°23' W 123°24'612.9
2017-Dec-03 13:31N 48°24' W 123°14'815.2
2017-Dec-03 13:01N 48°32' W 123°13'714.2
2017-Dec-03 12:31N 48°39' W 123°15'510.9
2017-Dec-03 12:00N 48°43' W 123°10'612.7
2017-Dec-03 11:30N 48°47' W 123°02'611.8
2017-Dec-03 10:59N 48°52' W 123°06'714.4
2017-Dec-03 10:30N 48°57' W 123°14'715.0
2017-Dec-03 10:00N 49°02' W 123°23'714.0
2017-Dec-03 09:30N 49°09' W 123°24'815.9
2017-Dec-03 09:00N 49°16' W 123°21'714.4
2017-Dec-03 08:31N 49°19' W 123°11'5 9.1
2017-Dec-03 08:00N 49°18' W 123°04'2 3.1
2017-Dec-03 07:30N 49°18' W 123°02'0 0.0
2017-Dec-03 06:59N 49°18' W 123°02'0 0.0
2017-Dec-01 18:16N 49°18' W 123°02'0 0.0
2017-Dec-01 12:50N 49°18' W 123°02'0 0.1
2017-Dec-01 12:30N 49°18' W 123°02'1 2.3
2017-Dec-01 12:01N 49°18' W 123°04'3 6.3
2017-Dec-01 11:31N 49°19' W 123°08'4 7.1
2017-Dec-01 11:01N 49°19' W 123°14'3 6.8
2017-Dec-01 10:30N 49°17' W 123°18'510.9
2017-Dec-01 10:00N 49°12' W 123°20'611.2
2017-Dec-01 09:30N 49°06' W 123°21'612.7
2017-Dec-01 09:00N 49°01' W 123°15'815.6
2017-Dec-01 08:30N 48°55' W 123°07'815.4
2017-Dec-01 08:00N 48°49' W 122°59'815.8
2017-Dec-01 07:30N 48°44' W 123°08'612.5
2017-Dec-01 07:00N 48°39' W 123°14'815.7
2017-Dec-01 06:30N 48°31' W 123°12'714.6
2017-Dec-01 06:00N 48°24' W 123°11'714.8
2017-Dec-01 05:30N 48°22' W 123°22'1 2.3
2017-Dec-01 05:00N 48°21' W 123°22'1 1.8
2017-Dec-01 04:27N 48°21' W 123°21'  
Track history (hours):
 
Tides and Currents Weather Stations Pressure Air Temp Water Temp Dewpoint Dewpoint Depression Visibility Wind Speed Wind Dir Waves Ship Positions

Songa Pride

Last reported at 2017-Dec-11 04:13 UTC. Time now 2017-Dec-12 19:46 UTC.
Position N 38°22' W 125°01'.

Length 184 m; draft 7.8 m.

Type: Ship. MMSI: 538006302.

Date/timePositionNaut miles runAvg speedWind from/ knotsBaromVisibWave heightAir tempDewpointWater temp
2017-Dec-11 04:13N 38°22' W 125°01'413.7
2017-Dec-11 03:56N 38°19' W 124°59'613.9
2017-Dec-11 03:31N 38°14' W 124°56'714.4
2017-Dec-11 03:00N 38°07' W 124°52'714.7
2017-Dec-11 02:31N 38°01' W 124°47'714.7
2017-Dec-11 02:01N 37°54' W 124°43'714.8
2017-Dec-11 01:31N 37°47' W 124°39'714.7
2017-Dec-11 01:01N 37°41' W 124°35'714.6
2017-Dec-11 00:31N 37°34' W 124°32'714.1
2017-Dec-11 00:01N 37°28' W 124°28'714.1
2017-Dec-10 23:31N 37°21' W 124°24'713.9
2017-Dec-10 23:01N 37°15' W 124°20'714.0
2017-Dec-10 22:31N 37°09' W 124°17'714.3
2017-Dec-10 22:01N 37°02' W 124°13'714.1
2017-Dec-10 21:31N 36°56' W 124°09'714.0
2017-Dec-10 21:01N 36°49' W 124°05'714.2
2017-Dec-10 20:31N 36°43' W 124°01'714.1
2017-Dec-10 20:01N 36°37' W 123°58'714.2
2017-Dec-10 19:31N 36°30' W 123°53'714.3
2017-Dec-10 19:01N 36°24' W 123°50'714.2
2017-Dec-10 18:31N 36°18' W 123°46'714.2
2017-Dec-10 18:01N 36°11' W 123°42'713.8
2017-Dec-10 17:31N 36°05' W 123°39'713.8
2017-Dec-10 17:01N 35°59' W 123°35'714.1
2017-Dec-10 16:31N 35°52' W 123°31'714.7
2017-Dec-10 16:01N 35°46' W 123°27'713.7
2017-Dec-10 15:31N 35°40' W 123°24'713.6
2017-Dec-10 15:00N 35°33' W 123°20'713.6
2017-Dec-10 14:30N 35°27' W 123°17'713.5
2017-Dec-10 14:00N 35°21' W 123°13'713.3
2017-Dec-10 13:30N 35°15' W 123°10'713.3
2017-Dec-10 13:00N 35°09' W 123°06'1013.4
2017-Dec-10 12:16N 35°00' W 123°01'512.5
2017-Dec-10 11:52N 34°57' W 122°56'1113.0
2017-Dec-10 11:03N 34°54' W 122°44'413.0
2017-Dec-10 10:45N 34°52' W 122°39'313.3
2017-Dec-10 10:30N 34°51' W 122°36'713.6
2017-Dec-10 09:58N 34°49' W 122°27'713.8
2017-Dec-10 09:30N 34°48' W 122°19'713.6
2017-Dec-10 09:01N 34°46' W 122°12'713.6
2017-Dec-10 08:31N 34°44' W 122°04'713.7
2017-Dec-10 08:01N 34°43' W 121°55'713.8
2017-Dec-10 07:30N 34°40' W 121°47'713.9
2017-Dec-10 07:00N 34°38' W 121°39'713.6
2017-Dec-10 06:31N 34°36' W 121°32'713.7
2017-Dec-10 06:00N 34°34' W 121°24'713.8
2017-Dec-10 05:31N 34°32' W 121°16'713.6
2017-Dec-10 05:00N 34°30' W 121°08'713.8
2017-Dec-10 04:30N 34°28' W 120°60'713.4
2017-Dec-10 04:00N 34°26' W 120°52'713.6
2017-Dec-10 03:30N 34°25' W 120°44'713.7
2017-Dec-10 03:00N 34°23' W 120°36'713.5
2017-Dec-10 02:29N 34°21' W 120°28'713.6
2017-Dec-10 02:00N 34°19' W 120°20'713.4
2017-Dec-10 01:29N 34°17' W 120°12'713.5
2017-Dec-10 00:59N 34°15' W 120°04'714.1
2017-Dec-10 00:30N 34°13' W 119°56'714.0
2017-Dec-10 00:00N 34°12' W 119°48'814.5
2017-Dec-09 23:29N 34°10' W 119°39'714.7
2017-Dec-09 22:59N 34°08' W 119°31'714.9
2017-Dec-09 22:30N 34°06' W 119°22'815.0
2017-Dec-09 22:00N 34°03' W 119°14'714.5
2017-Dec-09 21:30N 33°60' W 119°06'714.0
2017-Dec-09 20:59N 33°56' W 118°59'611.6
2017-Dec-09 20:29N 33°53' W 118°52'611.9
2017-Dec-09 20:01N 33°51' W 118°47'611.7
2017-Dec-09 19:31N 33°48' W 118°40'611.8
2017-Dec-09 19:00N 33°45' W 118°34'611.6
2017-Dec-09 18:31N 33°42' W 118°28'611.2
2017-Dec-09 18:01N 33°39' W 118°23'911.1
2017-Dec-09 17:14N 33°38' W 118°12'5 1.3
2017-Dec-09 13:17N 33°43' W 118°14'0 0.1
2017-Dec-09 12:23N 33°43' W 118°14'0 0.1
2017-Dec-09 11:59N 33°43' W 118°14'0 0.0
2017-Dec-09 11:29N 33°43' W 118°14'0 0.2
2017-Dec-09 10:50N 33°43' W 118°14'0 0.0
2017-Dec-09 10:29N 33°43' W 118°14'0 0.2
2017-Dec-09 09:59N 33°43' W 118°14'0 0.0
2017-Dec-09 09:29N 33°43' W 118°14'0 0.1
2017-Dec-09 08:59N 33°43' W 118°14'0 0.1
2017-Dec-09 08:29N 33°43' W 118°14'0 0.0
2017-Dec-09 07:53N 33°43' W 118°14'0 0.1
2017-Dec-09 06:41N 33°43' W 118°14'0 0.1
2017-Dec-09 06:23N 33°43' W 118°14'0 0.1
2017-Dec-09 05:53N 33°43' W 118°14'1 0.2
2017-Dec-09 01:09N 33°43' W 118°15'1 8.2
2017-Dec-09 00:59N 33°43' W 118°16'3 0.1
2017-Dec-07 13:26N 33°41' W 118°14'4 5.4
2017-Dec-07 12:46N 33°37' W 118°15'1 3.8
2017-Dec-07 12:23N 33°36' W 118°16'7 7.2
2017-Dec-07 11:24N 33°38' W 118°24'3 8.2
2017-Dec-07 11:00N 33°40' W 118°28'4 8.3
2017-Dec-07 10:30N 33°42' W 118°32'4 8.8
2017-Dec-07 10:00N 33°44' W 118°37'4 8.4
2017-Dec-07 09:30N 33°46' W 118°41'5 9.6
2017-Dec-07 09:00N 33°48' W 118°46'510.9
2017-Dec-07 08:30N 33°51' W 118°52'510.6
2017-Dec-07 08:00N 33°53' W 118°58'611.2
2017-Dec-07 07:30N 33°56' W 119°03'611.6
2017-Dec-07 07:00N 33°59' W 119°09'612.1
2017-Dec-07 06:29N 34°02' W 119°16'612.5
2017-Dec-07 05:58N 34°04' W 119°23'612.5
2017-Dec-07 05:30N 34°06' W 119°30'713.1
2017-Dec-07 05:00N 34°08' W 119°38'714.0
2017-Dec-07 04:30N 34°09' W 119°46'714.2
2017-Dec-07 03:59N 34°11' W 119°54'714.5
2017-Dec-07 03:30N 34°13' W 120°03'713.9
2017-Dec-07 03:00N 34°15' W 120°11'713.9
2017-Dec-07 02:30N 34°17' W 120°19'714.3
2017-Dec-07 02:00N 34°19' W 120°27'713.6
2017-Dec-07 01:30N 34°20' W 120°35'714.0
2017-Dec-07 01:00N 34°22' W 120°43'714.1
2017-Dec-07 00:31N 34°23' W 120°52'714.4
2017-Dec-07 00:00N 34°26' W 120°60'714.3
2017-Dec-06 23:30N 34°28' W 121°08'714.0
2017-Dec-06 23:00N 34°31' W 121°16'713.8
2017-Dec-06 22:30N 34°33' W 121°24'714.0
2017-Dec-06 22:00N 34°35' W 121°32'714.4
2017-Dec-06 21:30N 34°37' W 121°40'714.1
2017-Dec-06 21:00N 34°39' W 121°48'  
2017-Dec-03 20:06N 48°22' W 125°11'212.4
2017-Dec-03 19:56N 48°24' W 125°09'512.2
2017-Dec-03 19:30N 48°28' W 125°04'611.5
2017-Dec-03 19:00N 48°31' W 124°56'612.5
2017-Dec-03 18:30N 48°31' W 124°47'612.8
2017-Dec-03 18:00N 48°29' W 124°38'713.4
2017-Dec-03 17:30N 48°26' W 124°28'713.4
2017-Dec-03 17:00N 48°24' W 124°19'713.7
2017-Dec-03 16:30N 48°21' W 124°10'714.1
2017-Dec-03 16:00N 48°18' W 124°00'714.4
2017-Dec-03 15:30N 48°17' W 123°49'714.3
2017-Dec-03 15:00N 48°16' W 123°39'613.2
2017-Dec-03 14:30N 48°17' W 123°29'714.1
2017-Dec-03 14:00N 48°23' W 123°24'612.9
2017-Dec-03 13:31N 48°24' W 123°14'815.2
2017-Dec-03 13:01N 48°32' W 123°13'714.2
2017-Dec-03 12:31N 48°39' W 123°15'510.9
2017-Dec-03 12:00N 48°43' W 123°10'612.7
2017-Dec-03 11:30N 48°47' W 123°02'611.8
2017-Dec-03 10:59N 48°52' W 123°06'714.4
2017-Dec-03 10:30N 48°57' W 123°14'715.0
2017-Dec-03 10:00N 49°02' W 123°23'714.0
2017-Dec-03 09:30N 49°09' W 123°24'815.9
2017-Dec-03 09:00N 49°16' W 123°21'714.4
2017-Dec-03 08:31N 49°19' W 123°11'5 9.1
2017-Dec-03 08:00N 49°18' W 123°04'2 3.1
2017-Dec-03 07:30N 49°18' W 123°02'0 0.0
2017-Dec-03 06:59N 49°18' W 123°02'0 0.0
2017-Dec-01 18:16N 49°18' W 123°02'0 0.0
2017-Dec-01 12:50N 49°18' W 123°02'0 0.1
2017-Dec-01 12:30N 49°18' W 123°02'1 2.3
2017-Dec-01 12:01N 49°18' W 123°04'3 6.3
2017-Dec-01 11:31N 49°19' W 123°08'4 7.1
2017-Dec-01 11:01N 49°19' W 123°14'3 6.8
2017-Dec-01 10:30N 49°17' W 123°18'510.9
2017-Dec-01 10:00N 49°12' W 123°20'611.2
2017-Dec-01 09:30N 49°06' W 123°21'612.7
2017-Dec-01 09:00N 49°01' W 123°15'815.6
2017-Dec-01 08:30N 48°55' W 123°07'815.4
2017-Dec-01 08:00N 48°49' W 122°59'815.8
2017-Dec-01 07:30N 48°44' W 123°08'612.5
2017-Dec-01 07:00N 48°39' W 123°14'815.7
2017-Dec-01 06:30N 48°31' W 123°12'714.6
2017-Dec-01 06:00N 48°24' W 123°11'714.8
2017-Dec-01 05:30N 48°22' W 123°22'1 2.3
2017-Dec-01 05:00N 48°21' W 123°22'1 1.8
2017-Dec-01 04:27N 48°21' W 123°21'  

Dump ship's entire track history